createdAt,value
2017-12-27T00:00:15.220Z,5.75
2017-12-27T00:02:58.667Z,5.07
2017-12-27T00:05:31.804Z,5.68
2017-12-27T00:08:04.950Z,5.40
2017-12-27T00:10:38.895Z,4.95
2017-12-27T00:13:12.280Z,4.75
2017-12-27T00:15:46.277Z,4.07
2017-12-27T00:18:20.260Z,4.80
2017-12-27T00:21:02.752Z,5.30
2017-12-27T00:23:35.945Z,5.00
2017-12-27T00:26:09.176Z,5.25
2017-12-27T00:28:42.447Z,5.30
2017-12-27T00:31:10.013Z,5.25
2017-12-27T00:33:37.604Z,4.55
2017-12-27T00:36:05.196Z,5.20
2017-12-27T00:38:32.780Z,4.50
2017-12-27T00:41:00.388Z,4.90
2017-12-27T00:43:28.739Z,4.72
2017-12-27T00:45:56.307Z,5.03
2017-12-27T00:48:23.911Z,5.87
2017-12-27T00:50:51.470Z,5.53
2017-12-27T00:53:19.062Z,5.20
2017-12-27T00:55:46.665Z,5.80
2017-12-27T00:58:14.256Z,5.07
2017-12-27T01:00:41.811Z,6.00
2017-12-27T01:03:09.427Z,5.68
2017-12-27T01:05:36.993Z,6.05
2017-12-27T01:08:04.597Z,5.25
2017-12-27T01:10:32.192Z,5.43
2017-12-27T01:12:59.788Z,5.78
2017-12-27T01:15:27.366Z,4.95
2017-12-27T01:17:55.730Z,4.20
2017-12-27T01:20:23.289Z,4.65
2017-12-27T01:22:50.844Z,6.50
2017-12-27T01:25:18.435Z,5.93
2017-12-27T01:27:45.998Z,5.32
2017-12-27T01:30:13.589Z,5.30
2017-12-27T01:32:41.193Z,6.28
2017-12-27T01:35:08.757Z,6.53
2017-12-27T01:37:37.117Z,6.62
2017-12-27T01:40:04.673Z,7.18
2017-12-27T01:42:32.272Z,6.53
2017-12-27T01:44:59.850Z,6.40
2017-12-27T01:47:27.444Z,6.68
2017-12-27T01:49:55.876Z,5.28
2017-12-27T01:52:24.841Z,6.30
2017-12-27T01:54:52.398Z,7.93
2017-12-27T01:57:20.016Z,9.18
2017-12-27T01:59:47.612Z,7.10
2017-12-27T02:02:15.230Z,7.05
2017-12-27T02:04:42.838Z,6.70
2017-12-27T02:07:10.436Z,6.43
2017-12-27T02:09:38.757Z,6.07
2017-12-27T02:12:06.343Z,5.68
2017-12-27T02:14:33.924Z,5.18
2017-12-27T02:17:02.265Z,6.82
2017-12-27T02:19:29.899Z,6.57
2017-12-27T02:21:57.458Z,7.62
2017-12-27T02:24:25.073Z,5.78
2017-12-27T02:26:52.628Z,6.80
2017-12-27T02:29:20.216Z,6.62
2017-12-27T02:31:48.558Z,7.32
2017-12-27T02:34:16.112Z,7.00
2017-12-27T02:36:43.709Z,7.43
2017-12-27T02:39:12.039Z,7.97
2017-12-27T02:41:39.644Z,7.20
2017-12-27T02:44:07.985Z,7.37
2017-12-27T02:46:35.585Z,7.05
2017-12-27T02:49:03.908Z,8.18
2017-12-27T02:51:31.500Z,8.90
2017-12-27T02:53:59.086Z,8.05
2017-12-27T02:56:27.432Z,6.75
2017-12-27T02:58:55.008Z,8.90
2017-12-27T03:01:22.609Z,8.70
2017-12-27T03:03:50.180Z,7.60
2017-12-27T03:06:17.740Z,8.00
2017-12-27T03:08:46.115Z,7.45
2017-12-27T03:11:13.674Z,7.72
2017-12-27T03:13:41.256Z,7.72
2017-12-27T03:16:08.863Z,7.90
2017-12-27T03:18:36.442Z,7.37
2017-12-27T03:21:04.806Z,7.15
2017-12-27T03:23:33.172Z,7.18
2017-12-27T03:26:00.739Z,6.60
2017-12-27T03:28:28.344Z,6.90
2017-12-27T03:30:57.953Z,7.95
2017-12-27T03:33:25.568Z,7.47
2017-12-27T03:35:53.153Z,8.93
2017-12-27T03:38:21.537Z,7.28
2017-12-27T03:40:49.125Z,7.18
2017-12-27T03:43:16.708Z,6.93
2017-12-27T03:45:44.297Z,7.70
2017-12-27T03:48:12.661Z,7.40
2017-12-27T03:50:40.220Z,6.93
2017-12-27T03:53:07.831Z,7.82
2017-12-27T03:55:35.437Z,8.32
2017-12-27T03:58:03.040Z,7.18
2017-12-27T04:00:31.404Z,7.75
2017-12-27T04:03:00.272Z,7.07
2017-12-27T04:05:28.792Z,7.05
2017-12-27T04:07:56.390Z,7.00
2017-12-27T04:10:23.993Z,7.72
2017-12-27T04:12:52.364Z,6.72
2017-12-27T04:15:19.924Z,7.07
2017-12-27T04:17:47.524Z,6.97
2017-12-27T04:20:15.097Z,7.07
2017-12-27T04:22:42.712Z,6.18
2017-12-27T04:25:10.266Z,6.75
2017-12-27T04:27:37.827Z,7.50
2017-12-27T04:30:05.421Z,6.47
2017-12-27T04:32:32.991Z,6.90
2017-12-27T04:35:00.605Z,7.87
2017-12-27T04:37:28.160Z,6.75
2017-12-27T04:39:55.737Z,6.78
2017-12-27T04:42:23.342Z,6.75
2017-12-27T04:44:50.916Z,6.45
2017-12-27T04:47:18.525Z,7.10
2017-12-27T04:49:46.084Z,5.80
2017-12-27T04:52:14.416Z,5.70
2017-12-27T04:54:42.010Z,6.65
2017-12-27T04:57:09.564Z,6.80
2017-12-27T04:59:37.152Z,7.05
2017-12-27T05:02:05.486Z,6.75
2017-12-27T05:04:33.086Z,6.20
2017-12-27T05:07:01.449Z,6.93
2017-12-27T05:09:28.999Z,5.50
2017-12-27T05:11:56.600Z,6.03
2017-12-27T05:14:24.172Z,5.20
2017-12-27T05:16:51.764Z,5.87
2017-12-27T05:19:19.348Z,5.37
2017-12-27T05:21:46.899Z,5.65
2017-12-27T05:24:14.511Z,6.00
2017-12-27T05:26:42.833Z,5.15
2017-12-27T05:29:10.397Z,6.70
2017-12-27T05:31:37.995Z,5.55
2017-12-27T05:34:06.350Z,5.75
2017-12-27T05:36:33.924Z,5.90
2017-12-27T05:39:02.317Z,6.47
2017-12-27T05:41:30.634Z,6.70
2017-12-27T05:43:58.216Z,6.00
2017-12-27T05:46:25.833Z,6.47
2017-12-27T05:48:54.316Z,6.03
2017-12-27T05:51:21.915Z,5.80
2017-12-27T05:53:49.485Z,6.45
2017-12-27T05:56:17.103Z,6.20
2017-12-27T05:58:44.682Z,5.15
2017-12-27T06:01:12.247Z,7.82
2017-12-27T06:03:39.867Z,6.35
2017-12-27T06:06:08.243Z,5.20
2017-12-27T06:08:36.564Z,5.68
2017-12-27T06:11:04.132Z,6.15
2017-12-27T06:13:31.724Z,5.53
2017-12-27T06:15:59.287Z,5.10
2017-12-27T06:18:26.869Z,5.28
2017-12-27T06:20:54.465Z,5.70
2017-12-27T06:23:22.056Z,6.15
2017-12-27T06:25:49.625Z,6.25
2017-12-27T06:28:17.185Z,6.05
2017-12-27T06:30:45.563Z,4.95
2017-12-27T06:33:13.121Z,5.22
2017-12-27T06:35:40.733Z,5.03
2017-12-27T06:38:08.308Z,5.00
2017-12-27T06:40:35.892Z,5.68
2017-12-27T06:43:03.458Z,6.43
2017-12-27T06:45:31.052Z,5.80
2017-12-27T06:47:59.887Z,6.20
2017-12-27T06:50:27.706Z,5.65
2017-12-27T06:52:56.053Z,5.68
2017-12-27T06:55:23.694Z,6.15
2017-12-27T06:57:51.260Z,5.85
2017-12-27T07:00:18.820Z,5.10
2017-12-27T07:02:46.453Z,6.28
2017-12-27T07:05:14.068Z,5.45
2017-12-27T07:07:41.661Z,5.53
2017-12-27T07:10:09.992Z,5.78
2017-12-27T07:12:37.552Z,5.82
2017-12-27T07:15:05.136Z,5.90
2017-12-27T07:17:32.827Z,6.35
2017-12-27T07:20:00.389Z,5.85
2017-12-27T07:22:27.982Z,6.90
2017-12-27T07:24:55.574Z,5.40
2017-12-27T07:27:23.151Z,6.47
2017-12-27T07:29:50.802Z,6.72
2017-12-27T07:32:18.372Z,6.62
2017-12-27T07:34:46.728Z,6.10
2017-12-27T07:37:14.284Z,5.72
2017-12-27T07:39:41.884Z,6.18
2017-12-27T07:42:10.215Z,4.93
2017-12-27T07:44:37.789Z,6.80
2017-12-27T07:47:05.410Z,6.43
2017-12-27T07:49:32.996Z,6.47
2017-12-27T07:52:00.648Z,5.57
2017-12-27T07:54:28.495Z,5.37
2017-12-27T07:56:58.901Z,5.80
2017-12-27T07:59:26.880Z,5.40
2017-12-27T08:01:55.540Z,5.85
2017-12-27T08:04:23.137Z,5.45
2017-12-27T08:06:50.733Z,6.10
2017-12-27T08:09:18.325Z,4.65
2017-12-27T08:11:46.009Z,6.15
2017-12-27T08:14:14.362Z,6.05
2017-12-27T08:16:42.925Z,5.43
2017-12-27T08:19:11.408Z,5.25
2017-12-27T08:21:39.036Z,5.22
2017-12-27T08:24:06.590Z,4.62
2017-12-27T08:26:34.164Z,4.78
2017-12-27T08:29:01.745Z,4.37
2017-12-27T08:31:29.308Z,3.90
2017-12-27T08:33:56.887Z,4.28
2017-12-27T08:36:24.508Z,3.75
2017-12-27T08:38:52.100Z,3.90
2017-12-27T08:41:19.696Z,3.10
2017-12-27T08:43:48.060Z,4.40
2017-12-27T08:46:15.629Z,4.60
2017-12-27T08:48:44.004Z,4.75
2017-12-27T08:51:12.390Z,4.50
2017-12-27T08:53:40.741Z,3.05
2017-12-27T08:56:08.302Z,3.25
2017-12-27T08:58:35.910Z,2.53
2017-12-27T09:01:03.462Z,2.78
2017-12-27T09:03:31.073Z,2.40
2017-12-27T09:05:58.637Z,2.70
2017-12-27T09:08:26.245Z,2.05
2017-12-27T09:10:53.816Z,2.20
2017-12-27T09:13:21.412Z,2.12
2017-12-27T09:15:48.988Z,2.03
2017-12-27T09:18:16.553Z,2.05
2017-12-27T09:20:44.144Z,2.30
2017-12-27T09:23:12.456Z,4.32
2017-12-27T09:25:41.053Z,6.03
2017-12-27T09:28:08.652Z,6.07
2017-12-27T09:30:36.992Z,6.03
2017-12-27T09:33:04.603Z,7.95
2017-12-27T09:35:32.948Z,7.80
2017-12-27T09:38:00.592Z,7.07
2017-12-27T09:40:28.188Z,6.50
2017-12-27T09:42:56.528Z,7.00
2017-12-27T09:45:24.136Z,6.93
2017-12-27T09:47:52.553Z,7.05
2017-12-27T09:50:20.159Z,7.05
2017-12-27T09:52:47.745Z,7.30
2017-12-27T09:55:16.117Z,8.18
2017-12-27T09:57:44.487Z,7.35
2017-12-27T10:00:12.066Z,7.35
2017-12-27T10:02:48.449Z,7.57
2017-12-27T10:05:28.259Z,7.18
2017-12-27T10:07:56.620Z,6.90
2017-12-27T10:10:24.184Z,7.30
2017-12-27T10:12:51.774Z,6.60
2017-12-27T10:15:20.135Z,6.72
2017-12-27T10:17:47.718Z,7.07
2017-12-27T10:20:16.041Z,5.97
2017-12-27T10:22:43.628Z,5.82
2017-12-27T10:25:11.214Z,4.72
2017-12-27T10:27:39.583Z,4.40
2017-12-27T10:30:07.144Z,3.90
2017-12-27T10:32:34.694Z,4.05
2017-12-27T10:35:02.285Z,3.20
2017-12-27T10:37:30.641Z,3.58
2017-12-27T10:39:58.992Z,2.42
2017-12-27T10:42:26.638Z,2.90
2017-12-27T10:44:54.263Z,2.80
2017-12-27T10:47:22.595Z,2.72
2017-12-27T10:49:50.161Z,2.50
2017-12-27T10:52:17.747Z,2.65
2017-12-27T10:54:45.346Z,2.80
2017-12-27T10:57:13.711Z,2.65
2017-12-27T10:59:42.173Z,2.65
2017-12-27T11:02:10.493Z,2.58
2017-12-27T11:04:38.068Z,2.53
2017-12-27T11:07:05.680Z,3.00
2017-12-27T11:09:34.001Z,3.30
2017-12-27T11:12:01.566Z,3.03
2017-12-27T11:14:29.168Z,2.85
2017-12-27T11:16:56.730Z,3.10
2017-12-27T11:19:24.319Z,2.95
2017-12-27T11:21:51.929Z,2.50
2017-12-27T11:24:19.530Z,3.12
2017-12-27T11:26:47.947Z,3.03
2017-12-27T11:29:15.499Z,3.20
2017-12-27T11:31:43.068Z,3.55
2017-12-27T11:34:10.661Z,4.15
2017-12-27T11:36:38.273Z,4.15
2017-12-27T11:39:05.842Z,4.53
2017-12-27T11:41:33.447Z,5.85
2017-12-27T11:44:01.044Z,5.25
2017-12-27T11:46:28.633Z,5.18
2017-12-27T11:48:56.243Z,4.32
2017-12-27T11:51:23.784Z,4.35
2017-12-27T11:53:51.389Z,5.35
2017-12-27T11:56:19.032Z,5.70
2017-12-27T11:58:46.671Z,5.57
2017-12-27T12:01:14.304Z,6.25
2017-12-27T12:03:41.859Z,8.02
2017-12-27T12:06:09.419Z,7.68
2017-12-27T12:08:37.268Z,7.72
2017-12-27T12:11:04.875Z,8.65
2017-12-27T12:13:32.441Z,7.93
2017-12-27T12:16:00.071Z,7.70
2017-12-27T12:18:27.681Z,7.00
2017-12-27T12:20:56.073Z,6.00
2017-12-27T12:23:24.751Z,7.40
2017-12-27T12:25:52.346Z,7.43
2017-12-27T12:28:20.324Z,6.22
2017-12-27T12:30:47.944Z,7.00
2017-12-27T12:33:16.272Z,6.57
2017-12-27T12:35:43.829Z,7.15
2017-12-27T12:38:11.472Z,7.37
2017-12-27T12:40:39.014Z,6.30
2017-12-27T12:43:07.385Z,5.87
2017-12-27T12:45:35.739Z,6.78
2017-12-27T12:48:03.326Z,6.00
2017-12-27T12:50:31.666Z,6.07
2017-12-27T12:52:59.264Z,6.07
2017-12-27T12:55:28.272Z,7.75
2017-12-27T12:57:56.588Z,4.95
2017-12-27T13:00:24.208Z,5.20
2017-12-27T13:02:51.780Z,5.20
2017-12-27T13:05:19.350Z,4.50
2017-12-27T13:07:46.944Z,5.12
2017-12-27T13:10:14.558Z,4.60
2017-12-27T13:12:42.135Z,4.85
2017-12-27T13:15:10.492Z,5.55
2017-12-27T13:17:40.008Z,3.97
2017-12-27T13:20:07.565Z,4.57
2017-12-27T13:22:35.202Z,4.22
2017-12-27T13:25:03.545Z,3.53
2017-12-27T13:27:31.101Z,4.00
2017-12-27T13:29:58.712Z,4.20
2017-12-27T13:32:27.049Z,3.75
2017-12-27T13:34:54.665Z,3.05
2017-12-27T13:37:22.237Z,4.00
2017-12-27T13:39:49.843Z,3.65
2017-12-27T13:42:17.416Z,4.70
2017-12-27T13:44:44.997Z,3.72
2017-12-27T13:47:13.368Z,4.65
2017-12-27T13:49:41.777Z,5.03
2017-12-27T13:52:09.388Z,5.40
2017-12-27T13:54:36.988Z,4.78
2017-12-27T13:57:09.044Z,4.75
2017-12-27T13:59:36.701Z,5.20
2017-12-27T14:02:05.048Z,6.20
2017-12-27T14:04:32.605Z,3.60
2017-12-27T14:07:00.199Z,3.78
2017-12-27T14:09:28.594Z,3.33
2017-12-27T14:11:56.910Z,3.53
2017-12-27T14:14:24.497Z,4.20
2017-12-27T14:16:52.044Z,3.87
2017-12-27T14:19:19.646Z,3.78
2017-12-27T14:21:48.002Z,3.80
2017-12-27T14:24:15.622Z,3.90
2017-12-27T14:26:43.190Z,4.15
2017-12-27T14:29:10.767Z,4.18
2017-12-27T14:31:38.362Z,4.53
2017-12-27T14:34:06.703Z,4.28
2017-12-27T14:36:34.303Z,4.60
2017-12-27T14:39:02.623Z,4.60
2017-12-27T14:41:30.181Z,4.55
2017-12-27T14:43:57.803Z,5.32
2017-12-27T14:46:26.120Z,5.05
2017-12-27T14:48:53.666Z,4.53
2017-12-27T14:51:21.257Z,6.35
2017-12-27T14:53:48.829Z,5.37
2017-12-27T14:56:16.425Z,4.57
2017-12-27T14:58:44.758Z,4.70
2017-12-27T15:01:12.339Z,4.87
2017-12-27T15:03:39.961Z,5.15
2017-12-27T15:06:07.513Z,4.12
2017-12-27T15:08:35.065Z,4.93
2017-12-27T15:11:03.440Z,4.75
2017-12-27T15:13:31.050Z,6.47
2017-12-27T15:15:58.626Z,5.10
2017-12-27T15:18:26.246Z,5.80
2017-12-27T15:20:53.822Z,4.62
2017-12-27T15:23:21.389Z,6.55
2017-12-27T15:25:48.984Z,5.60
2017-12-27T15:28:16.560Z,6.57
2017-12-27T15:30:44.947Z,6.93
2017-12-27T15:33:13.274Z,6.00
2017-12-27T15:35:40.840Z,6.12
2017-12-27T15:38:08.454Z,5.87
2017-12-27T15:40:36.057Z,6.40
2017-12-27T15:43:03.624Z,5.18
2017-12-27T15:45:31.201Z,7.25
2017-12-27T15:47:58.800Z,6.70
2017-12-27T15:50:26.360Z,7.78
2017-12-27T15:52:54.010Z,6.93
2017-12-27T15:55:22.344Z,8.93
2017-12-27T15:57:49.884Z,9.25
2017-12-27T16:00:17.480Z,8.73
2017-12-27T16:02:45.067Z,13.65
2017-12-27T16:05:13.419Z,9.20
2017-12-27T16:07:41.044Z,8.40
2017-12-27T16:10:08.603Z,6.40
2017-12-27T16:12:36.204Z,5.65
2017-12-27T16:15:03.769Z,5.12
2017-12-27T16:17:32.125Z,5.32
2017-12-27T16:19:59.723Z,4.40
2017-12-27T16:22:28.073Z,4.60
2017-12-27T16:24:55.628Z,4.75
2017-12-27T16:27:23.217Z,5.40
2017-12-27T16:29:51.536Z,5.35
2017-12-27T16:32:20.112Z,4.15
2017-12-27T16:34:47.728Z,4.30
2017-12-27T16:37:15.354Z,3.90
2017-12-27T16:39:42.930Z,3.35
2017-12-27T16:42:10.509Z,3.78
2017-12-27T16:44:38.126Z,4.20
2017-12-27T16:47:05.697Z,3.78
2017-12-27T16:49:33.253Z,4.12
2017-12-27T16:52:00.854Z,3.45
2017-12-27T16:54:28.413Z,3.70
2017-12-27T16:56:56.009Z,3.50
2017-12-27T16:59:23.580Z,4.00
2017-12-27T17:01:51.222Z,3.60
2017-12-27T17:04:19.570Z,3.30
2017-12-27T17:06:47.140Z,4.07
2017-12-27T17:09:14.726Z,4.07
2017-12-27T17:11:43.088Z,3.90
2017-12-27T17:14:12.486Z,4.18
2017-12-27T17:16:41.246Z,3.55
2017-12-27T17:19:10.334Z,4.28
2017-12-27T17:21:39.894Z,3.92
2017-12-27T17:24:10.398Z,3.70
2017-12-27T17:26:40.333Z,3.45
2017-12-27T17:29:10.720Z,4.53
2017-12-27T17:31:40.729Z,4.22
2017-12-27T17:34:10.279Z,4.03
2017-12-27T17:36:42.059Z,3.72
2017-12-27T17:39:12.728Z,4.10
2017-12-27T17:41:42.550Z,3.70
2017-12-27T17:44:13.493Z,4.57
2017-12-27T17:46:43.835Z,4.30
2017-12-27T17:49:13.801Z,5.85
2017-12-27T17:51:43.630Z,4.65
2017-12-27T17:54:13.454Z,5.50
2017-12-27T17:56:44.172Z,4.80
2017-12-27T17:59:13.948Z,4.12
2017-12-27T18:01:44.247Z,4.25
2017-12-27T18:04:14.102Z,5.53
2017-12-27T18:06:43.689Z,5.60
2017-12-27T18:09:16.301Z,5.25
2017-12-27T18:11:45.960Z,5.28
2017-12-27T18:14:15.579Z,5.05
2017-12-27T18:16:44.941Z,6.15
2017-12-27T18:19:14.467Z,6.25
2017-12-27T18:21:43.861Z,5.97
2017-12-27T18:24:21.647Z,6.12
2017-12-27T18:26:49.254Z,5.60
2017-12-27T18:29:17.617Z,5.85
2017-12-27T18:31:45.197Z,5.70
2017-12-27T18:34:12.791Z,6.53
2017-12-27T18:36:40.395Z,6.07
2017-12-27T18:39:07.961Z,5.80
2017-12-27T18:41:35.528Z,5.60
2017-12-27T18:44:03.155Z,7.03
2017-12-27T18:46:30.731Z,8.52
2017-12-27T18:48:58.350Z,9.70
2017-12-27T18:51:25.923Z,9.90
2017-12-27T18:53:53.524Z,9.60
2017-12-27T18:56:21.138Z,10.45
2017-12-27T18:58:48.692Z,8.40
2017-12-27T19:01:19.341Z,8.25
2017-12-27T19:03:46.896Z,7.45
2017-12-27T19:06:14.528Z,6.00
2017-12-27T19:08:42.869Z,7.10
2017-12-27T19:11:10.463Z,6.78
2017-12-27T19:13:38.820Z,6.55
2017-12-27T19:16:06.392Z,7.50
2017-12-27T19:18:34.009Z,6.55
2017-12-27T19:21:01.586Z,6.85
2017-12-27T19:23:29.149Z,7.30
2017-12-27T19:25:56.760Z,7.10
2017-12-27T19:28:24.338Z,7.80
2017-12-27T19:30:51.960Z,6.85
2017-12-27T19:33:19.521Z,7.90
2017-12-27T19:35:47.082Z,7.70
2017-12-27T19:38:15.450Z,7.57
2017-12-27T19:40:43.855Z,7.82
2017-12-27T19:43:12.195Z,8.70
2017-12-27T19:45:39.786Z,8.55
2017-12-27T19:48:08.190Z,8.82
2017-12-27T19:50:35.746Z,8.68
2017-12-27T19:53:03.346Z,7.40
2017-12-27T19:55:30.945Z,7.00
2017-12-27T19:57:59.330Z,8.32
2017-12-27T20:00:27.708Z,8.70
2017-12-27T20:05:31.944Z,7.43
2017-12-27T20:08:00.270Z,8.45
2017-12-27T20:10:27.870Z,8.40
2017-12-27T20:12:55.440Z,6.87
2017-12-27T20:15:23.808Z,6.90
2017-12-27T20:17:51.396Z,7.18
2017-12-27T20:20:19.767Z,6.20
2017-12-27T20:22:48.113Z,6.22
2017-12-27T20:25:15.697Z,6.45
2017-12-27T20:27:43.301Z,6.53
2017-12-27T20:30:10.889Z,5.82
2017-12-27T20:32:38.445Z,6.35
2017-12-27T20:35:06.048Z,5.68
2017-12-27T20:37:34.400Z,5.45
2017-12-27T20:40:02.004Z,5.25
2017-12-27T20:42:29.606Z,5.25
2017-12-27T20:44:57.173Z,4.95
2017-12-27T20:47:24.775Z,5.00
2017-12-27T20:49:53.097Z,5.55
2017-12-27T20:52:21.446Z,5.70
2017-12-27T20:54:49.026Z,4.60
2017-12-27T20:57:16.642Z,4.75
2017-12-27T20:59:44.995Z,5.03
2017-12-27T21:02:14.688Z,5.35
2017-12-27T21:04:42.266Z,5.82
2017-12-27T21:07:09.874Z,4.32
2017-12-27T21:09:38.196Z,5.72
2017-12-27T21:12:05.806Z,4.22
2017-12-27T21:14:33.369Z,3.72
2017-12-27T21:17:01.693Z,2.65
2017-12-27T21:19:29.296Z,3.20
2017-12-27T21:21:57.667Z,3.50
2017-12-27T21:24:25.264Z,2.80
2017-12-27T21:26:52.870Z,3.22
2017-12-27T21:29:20.435Z,2.42
2017-12-27T21:31:47.994Z,2.65
2017-12-27T21:34:15.585Z,2.78
2017-12-27T21:36:43.924Z,2.35
2017-12-27T21:39:11.536Z,2.05
2017-12-27T21:41:39.866Z,2.30
2017-12-27T21:44:07.495Z,2.08
2017-12-27T21:46:35.057Z,1.60
2017-12-27T21:49:08.506Z,2.15
2017-12-27T21:51:36.858Z,1.95
2017-12-27T21:54:04.421Z,1.60
2017-12-27T21:56:32.022Z,1.90
2017-12-27T21:59:05.908Z,1.85
2017-12-27T22:01:39.110Z,2.60
2017-12-27T22:04:07.445Z,1.95
2017-12-27T22:06:35.044Z,1.70
2017-12-27T22:09:02.649Z,2.00
2017-12-27T22:11:30.224Z,1.60
2017-12-27T22:13:57.850Z,2.03
2017-12-27T22:16:26.171Z,2.22
2017-12-27T22:18:53.769Z,2.30
2017-12-27T22:21:21.439Z,2.05
2017-12-27T22:23:49.052Z,2.20
2017-12-27T22:26:16.656Z,2.28
2017-12-27T22:28:45.047Z,1.98
2017-12-27T22:31:13.408Z,2.50
2017-12-27T22:33:41.037Z,1.90
2017-12-27T22:36:08.617Z,1.75
2017-12-27T22:38:36.213Z,1.70
2017-12-27T22:41:04.577Z,1.62
2017-12-27T22:43:32.145Z,1.70
2017-12-27T22:46:00.522Z,1.90
2017-12-27T22:48:28.929Z,1.75
2017-12-27T22:50:56.502Z,2.00
2017-12-27T22:53:24.075Z,1.60
2017-12-27T22:55:51.688Z,1.70
2017-12-27T22:58:20.070Z,1.80
2017-12-27T23:00:48.393Z,1.90
2017-12-27T23:03:15.980Z,1.85
2017-12-27T23:05:43.542Z,1.92
2017-12-27T23:08:11.167Z,1.58
2017-12-27T23:10:38.734Z,1.80
2017-12-27T23:13:06.285Z,2.10
2017-12-27T23:15:33.914Z,2.30
2017-12-27T23:18:02.258Z,2.00
2017-12-27T23:20:29.818Z,1.75
2017-12-27T23:22:57.419Z,2.55
2017-12-27T23:25:25.794Z,2.20
2017-12-27T23:27:54.121Z,2.37
2017-12-27T23:30:22.073Z,2.83
2017-12-27T23:32:49.648Z,2.40
2017-12-27T23:35:17.192Z,2.45
2017-12-27T23:37:44.798Z,2.75
2017-12-27T23:40:12.350Z,2.58
2017-12-27T23:42:39.958Z,2.30
2017-12-27T23:45:07.532Z,3.30
2017-12-27T23:47:35.145Z,2.60
2017-12-27T23:50:02.710Z,2.75
2017-12-27T23:52:30.320Z,2.10
2017-12-27T23:54:57.947Z,2.62
2017-12-27T23:57:26.306Z,2.42
2017-12-27T23:59:53.878Z,2.75
